Hovedside
METAR-TAF:

METAR-TAF

Lufthavner :

Seinäjoki-Ilmajoki, Finland

Seinäjoki lufthavn

breddegrad: 62-41-37N, lengdegrad: 022-49-55E, høyde over havet: 91 m

Gjeldene værobservasjon

Denne rapporten ble laget for 1 time og 8 minutter siden, klokken 09:50 UTC
Vind 6 kt fra Nord
Temperatur 0°C
Luftfuktighet 93%
Trykk 1005 hPa
Sikt 10 km eller mer
Brutte skyer i en høyde av 2200 ft
Overskyet i en høyde av 3500 ft

METAR: EFSI 270950Z AUTO 35006KT 9999 BKN022 OVC035 00/M01 Q1005

Tid: 13:58 (10:58 UTC)


TAF: fraværende

Værobservasjoner og værvarsel for over 4000 flyplasser (METAR- og TAF-rapporter).

Tilgjengelige stasjoner er representert av de røde og gule prikkene på kartet.

Hold musepekeren over prikken for å se navnet på stasjonen.

Klikk så for å se værobservasjoner og -varsler.

For å forandre kartet kan du klikke på den grønne knappen med svart kryss for å zoome inn, på den grønne knappen med strek for å zoome ut, eller på de grønne pilene for å se tilstøtende kart.


METAR-TAF: